createdAt,value
2022-09-28T00:02:01.816Z,54.34
2022-09-28T00:04:01.797Z,54.84
2022-09-28T00:07:01.737Z,54.33
2022-09-28T00:09:01.749Z,54.31
2022-09-28T00:12:01.745Z,54.74
2022-09-28T00:14:01.740Z,54.34
2022-09-28T00:17:01.754Z,54.87
2022-09-28T00:20:01.782Z,55.65
2022-09-28T00:22:01.745Z,54.9
2022-09-28T00:24:01.766Z,55.25
2022-09-28T00:26:01.795Z,55
2022-09-28T00:29:01.803Z,54.75
2022-09-28T00:32:01.799Z,55.21
2022-09-28T00:34:01.769Z,55.33
2022-09-28T00:36:01.743Z,55.46
2022-09-28T00:39:01.778Z,55.23
2022-09-28T00:41:01.892Z,55.76
2022-09-28T00:44:01.747Z,55.91
2022-09-28T00:46:01.772Z,55.49
2022-09-28T00:49:02.243Z,55.75
2022-09-28T00:52:01.771Z,56
2022-09-28T00:54:02.036Z,56.83
2022-09-28T00:57:01.777Z,55.24
2022-09-28T00:59:01.800Z,55.54
2022-09-28T01:02:01.811Z,55.33
2022-09-28T01:05:01.788Z,55.81
2022-09-28T01:07:01.809Z,55.11
2022-09-28T01:10:01.740Z,55.39
2022-09-28T01:12:01.761Z,55.28
2022-09-28T01:14:01.836Z,55.37
2022-09-28T01:17:01.751Z,56.76
2022-09-28T01:20:01.762Z,55.9
2022-09-28T01:22:01.770Z,56.79
2022-09-28T01:24:01.823Z,55.94
2022-09-28T01:27:01.777Z,56.15
2022-09-28T01:29:01.749Z,55.58
2022-09-28T01:32:01.859Z,55.44
2022-09-28T01:34:01.791Z,56.21
2022-09-28T01:37:01.750Z,55.43
2022-09-28T01:40:01.814Z,55.72
2022-09-28T01:43:01.768Z,55.79
2022-09-28T01:45:01.748Z,56.34
2022-09-28T01:48:01.776Z,55.73
2022-09-28T01:51:01.770Z,55.67
2022-09-28T01:54:01.796Z,55.54
2022-09-28T01:57:01.799Z,56.03
2022-09-28T02:00:01.727Z,55.92
2022-09-28T02:02:01.815Z,56.59
2022-09-28T02:04:01.788Z,55.32
2022-09-28T02:06:01.789Z,56.24
2022-09-28T02:09:01.758Z,55.64
2022-09-28T02:11:02.828Z,55.45
2022-09-28T02:14:02.559Z,55.88
2022-09-28T02:17:01.800Z,55.3
2022-09-28T02:20:01.837Z,55.38
2022-09-28T02:22:01.805Z,55.62
2022-09-28T02:24:01.842Z,55.52
2022-09-28T02:27:01.772Z,55.75
2022-09-28T02:29:01.782Z,56.39
2022-09-28T02:31:01.787Z,55.4
2022-09-28T02:33:01.810Z,55.28
2022-09-28T02:36:01.784Z,56.12
2022-09-28T02:38:01.815Z,56.27
2022-09-28T02:41:01.820Z,56
2022-09-28T02:43:01.763Z,55.27
2022-09-28T02:45:01.787Z,54.79
2022-09-28T02:48:01.792Z,55.02
2022-09-28T02:50:01.800Z,54.82
2022-09-28T02:53:01.788Z,54.8
2022-09-28T02:56:01.796Z,55.19
2022-09-28T02:58:01.788Z,54.88
2022-09-28T03:01:01.863Z,54.71
2022-09-28T03:04:01.765Z,55.04
2022-09-28T03:06:01.786Z,54.88
2022-09-28T03:09:01.817Z,55.06
2022-09-28T03:11:01.798Z,55.35
2022-09-28T03:14:01.820Z,54.63
2022-09-28T03:17:01.774Z,55.15
2022-09-28T03:19:01.799Z,55.26
2022-09-28T03:22:01.799Z,54.98
2022-09-28T03:24:01.792Z,55.59
2022-09-28T03:26:01.789Z,55.27
2022-09-28T03:29:01.790Z,56.27
2022-09-28T03:31:01.811Z,56.4
2022-09-28T03:34:01.781Z,55.87
2022-09-28T03:36:01.807Z,55.7
2022-09-28T03:39:01.832Z,55.38
2022-09-28T03:42:01.767Z,55.31
2022-09-28T03:44:01.803Z,54.99
2022-09-28T03:47:01.783Z,55.72
2022-09-28T03:49:01.786Z,55.6
2022-09-28T03:51:01.785Z,56.33
2022-09-28T03:54:01.772Z,55.75
2022-09-28T03:57:01.791Z,55.43
2022-09-28T03:59:01.781Z,55.45
2022-09-28T04:02:01.927Z,55.61
2022-09-28T04:04:01.795Z,55.5
2022-09-28T04:07:01.775Z,55.41
2022-09-28T04:09:01.812Z,55.37
2022-09-28T04:11:01.839Z,56.17
2022-09-28T04:13:59.884Z,55.84
2022-09-28T04:16:00.109Z,55.9
2022-09-28T04:18:59.852Z,56.08
2022-09-28T04:21:00.282Z,56.17
2022-09-28T04:23:59.856Z,56.13
2022-09-28T04:25:59.947Z,56.02
2022-09-28T04:29:02.779Z,55.9
2022-09-28T04:31:00.282Z,55.98
2022-09-28T04:35:59.884Z,55.99
2022-09-28T04:38:00.760Z,56.08
2022-09-28T04:40:59.897Z,56.31
2022-09-28T04:43:00.566Z,56.49
2022-09-28T04:47:04.298Z,55.98
2022-09-28T04:49:59.870Z,55.97
2022-09-28T04:52:00.272Z,56.07
2022-09-28T04:55:00.140Z,55.93
2022-09-28T04:57:59.898Z,55.91
2022-09-28T05:00:00.320Z,56.09
2022-09-28T05:02:00.567Z,56.05
2022-09-28T05:05:00.420Z,55.76
2022-09-28T05:07:59.913Z,56.26
2022-09-28T05:11:00.366Z,56.1
2022-09-28T05:13:59.886Z,55.92
2022-09-28T05:16:04.488Z,55.95
2022-09-28T05:18:00.298Z,55.83
2022-09-28T05:20:59.866Z,56.07
2022-09-28T05:24:00.217Z,56.16
2022-09-28T05:26:59.958Z,56.48
2022-09-28T05:30:00.379Z,56.28
2022-09-28T05:32:59.865Z,56.19
2022-09-28T05:35:00.372Z,56.15
2022-09-28T05:38:00.560Z,55.87
2022-09-28T05:41:03.277Z,56.46
2022-09-28T05:42:59.899Z,55.95
2022-09-28T05:46:59.890Z,56.17
2022-09-28T05:48:59.970Z,56
2022-09-28T05:51:00.479Z,55.96
2022-09-28T05:54:04.797Z,56.04
2022-09-28T05:56:58.937Z,55.83
2022-09-28T05:58:59.872Z,55.57
2022-09-28T06:01:59.881Z,55.55
2022-09-28T06:04:00.481Z,55.6
2022-09-28T06:06:00.564Z,55.69
2022-09-28T06:10:00.337Z,55.71
2022-09-28T06:12:59.902Z,55.73
2022-09-28T06:15:00.450Z,55.79
2022-09-28T06:17:58.959Z,55.57
2022-09-28T06:19:59.948Z,55.56
2022-09-28T06:22:59.893Z,55.72
2022-09-28T06:25:00.461Z,55.65
2022-09-28T06:27:59.878Z,55.71
2022-09-28T06:30:00.692Z,55.66
2022-09-28T06:32:59.869Z,55.83
2022-09-28T06:34:59.887Z,56.04
2022-09-28T06:38:00.229Z,56.01
2022-09-28T06:40:59.972Z,55.81
2022-09-28T06:43:00.462Z,56.01
2022-09-28T06:46:00.716Z,56.04
2022-09-28T06:48:59.858Z,56.09
2022-09-28T06:50:59.868Z,55.79
2022-09-28T06:52:59.897Z,55.73
2022-09-28T06:55:00.561Z,55.62
2022-09-28T06:57:00.627Z,55.52
2022-09-28T07:00:00.074Z,56.04
2022-09-28T07:03:01.018Z,55.75
2022-09-28T07:05:59.988Z,55.28
2022-09-28T07:08:00.733Z,55.59
2022-09-28T07:11:00.201Z,55.25
2022-09-28T07:13:59.916Z,54.92
2022-09-28T07:17:10.523Z,55.06
2022-09-28T07:20:05.050Z,55.36
2022-09-28T07:23:59.914Z,55.57
2022-09-28T07:26:00.383Z,55.67
2022-09-28T07:28:59.888Z,55.78
2022-09-28T07:31:59.874Z,55.12
2022-09-28T07:34:00.384Z,55.36
2022-09-28T07:37:00.508Z,54.99
2022-09-28T07:39:00.726Z,54.86
2022-09-28T07:42:02.847Z,54.91
2022-09-28T07:44:59.922Z,55.3
2022-09-28T07:47:00.231Z,54.75
2022-09-28T07:50:00.990Z,54.84
2022-09-28T07:52:59.893Z,54.65
2022-09-28T07:55:02.276Z,54.39
2022-09-28T07:56:59.970Z,54.36
2022-09-28T07:59:00.449Z,53.94
2022-09-28T08:01:59.894Z,53.96
2022-09-28T08:03:59.888Z,53.97
2022-09-28T08:06:59.901Z,53.7
2022-09-28T08:08:59.889Z,53.59
2022-09-28T08:11:59.934Z,53.56
2022-09-28T08:16:59.921Z,53.34
2022-09-28T08:19:59.870Z,53.09
2022-09-28T08:21:59.881Z,53.14
2022-09-28T08:24:59.875Z,52.87
2022-09-28T08:27:00.737Z,52.94
2022-09-28T08:30:00.302Z,52.56
2022-09-28T08:32:59.883Z,52.83
2022-09-28T08:35:00.326Z,53
2022-09-28T08:38:59.909Z,52.62
2022-09-28T08:40:59.937Z,52.1
2022-09-28T08:42:59.908Z,52.15
2022-09-28T08:44:59.937Z,52.69
2022-09-28T08:46:59.974Z,52.57
2022-09-28T08:50:00.416Z,52.42
2022-09-28T08:52:59.995Z,53.67
2022-09-28T08:55:00.337Z,53.08
2022-09-28T08:57:59.989Z,52.62
2022-09-28T09:00:00.535Z,51.64
2022-09-28T09:03:00.097Z,52.13
2022-09-28T09:05:00.221Z,51.63
2022-09-28T09:07:59.923Z,51.2
2022-09-28T09:10:00.650Z,51.2
2022-09-28T09:12:59.950Z,51.45
2022-09-28T09:14:59.970Z,51.7
2022-09-28T09:17:59.892Z,51.58
2022-09-28T09:19:59.924Z,51.14
2022-09-28T09:22:00.297Z,51.61
2022-09-28T09:24:59.904Z,51.56
2022-09-28T09:27:00.297Z,51.42
2022-09-28T09:30:00.407Z,51.16
2022-09-28T09:33:00.660Z,50.94
2022-09-28T09:36:59.871Z,50.76
2022-09-28T09:39:00.260Z,50.84
2022-09-28T09:41:00.915Z,50.55
2022-09-28T09:43:59.901Z,51.1
2022-09-28T09:46:00.541Z,51.23
2022-09-28T09:48:59.889Z,50.51
2022-09-28T09:50:59.911Z,51.09
2022-09-28T09:53:00.219Z,50.63
2022-09-28T09:55:59.929Z,50.36
2022-09-28T09:58:59.915Z,50.01
2022-09-28T10:00:59.964Z,50.58
2022-09-28T10:02:59.993Z,51.35
2022-09-28T10:04:59.930Z,51.37
2022-09-28T10:06:59.929Z,51.75
2022-09-28T10:09:00.171Z,52.33
2022-09-28T10:11:00.345Z,52.69
2022-09-28T10:13:00.689Z,52.66
2022-09-28T10:15:59.911Z,52.44
2022-09-28T10:18:00.616Z,52.61
2022-09-28T10:21:00.593Z,52.93
2022-09-28T10:23:59.959Z,52.75
2022-09-28T10:26:00.820Z,52.62
2022-09-28T10:28:59.966Z,53.54
2022-09-28T10:31:59.000Z,53.48
2022-09-28T10:34:00.210Z,52.88
2022-09-28T10:36:59.930Z,52.94
2022-09-28T10:39:59.954Z,52.34
2022-09-28T10:42:59.010Z,52.22
2022-09-28T10:44:59.944Z,52.39
2022-09-28T10:47:00.550Z,51.41
2022-09-28T10:49:59.936Z,50.09
2022-09-28T10:52:00.364Z,50.79
2022-09-28T10:55:00.430Z,49.04
2022-09-28T10:57:59.923Z,48.42
2022-09-28T11:00:00.168Z,49.02
2022-09-28T11:02:59.977Z,49.39
2022-09-28T11:05:59.957Z,48.56
2022-09-28T11:09:00.568Z,47.15
2022-09-28T11:12:00.445Z,47.44
2022-09-28T11:14:58.994Z,47.39
2022-09-28T11:17:01.068Z,46.84
2022-09-28T11:18:59.954Z,47.69
2022-09-28T11:20:59.979Z,45.87
2022-09-28T11:24:00.382Z,46.8
2022-09-28T11:27:00.664Z,45.96
2022-09-28T11:29:59.986Z,46.39
2022-09-28T11:32:59.971Z,44.48
2022-09-28T11:36:00.345Z,43.98
2022-09-28T11:40:00.446Z,43.62
2022-09-28T11:42:00.535Z,42.84
2022-09-28T11:44:59.936Z,40.81
2022-09-28T11:48:00.036Z,39.58
2022-09-28T11:51:00.162Z,41.05
2022-09-28T11:53:59.932Z,38
2022-09-28T11:56:01.221Z,38.35
2022-09-28T11:59:00.408Z,38.32
2022-09-28T12:01:59.966Z,39.15
2022-09-28T12:04:59.925Z,38.92
2022-09-28T12:07:00.669Z,37.75
2022-09-28T12:10:00.281Z,36.53
2022-09-28T12:13:00.120Z,37.21
2022-09-28T12:16:23.257Z,37.87
2022-09-28T12:17:59.949Z,37.93
2022-09-28T12:20:00.532Z,38.99
2022-09-28T12:24:00.017Z,38.52
2022-09-28T12:26:59.931Z,38.72
2022-09-28T12:29:59.923Z,40.21
2022-09-28T12:31:59.930Z,38.07
2022-09-28T12:34:59.924Z,38.08
2022-09-28T12:37:00.111Z,38.44
2022-09-28T12:40:00.462Z,36.56
2022-09-28T12:42:00.366Z,36.61
2022-09-28T12:44:59.690Z,36.85
2022-09-28T12:47:00.002Z,35.82
2022-09-28T12:52:00.578Z,35.1
2022-09-28T12:54:59.994Z,36.47
2022-09-28T12:57:00.369Z,37.09
2022-09-28T12:59:59.942Z,37.5
2022-09-28T13:03:00.405Z,33.95
2022-09-28T13:05:59.936Z,33.3
2022-09-28T13:08:00.771Z,33.31
2022-09-28T13:11:02.194Z,36.26
2022-09-28T13:13:00.556Z,33.48
2022-09-28T13:16:00.064Z,32.7
2022-09-28T13:18:59.941Z,33.77
2022-09-28T13:21:00.036Z,33.11
2022-09-28T13:24:08.972Z,34.53
2022-09-28T13:26:00.386Z,34.85
2022-09-28T13:28:00.509Z,33.93
2022-09-28T13:30:00.969Z,33.95
2022-09-28T13:33:00.659Z,34.44
2022-09-28T13:36:00.576Z,35.04
2022-09-28T13:38:00.643Z,32.03
2022-09-28T13:40:59.982Z,30.92
2022-09-28T13:42:59.953Z,30.54
2022-09-28T13:45:00.193Z,30.77
2022-09-28T13:48:00.041Z,30.9
2022-09-28T13:50:59.022Z,31.02
2022-09-28T13:53:00.575Z,30.67
2022-09-28T13:56:00.038Z,31.01
2022-09-28T13:58:59.943Z,29.54
2022-09-28T14:02:01.687Z,31.39
2022-09-28T14:03:59.962Z,30.66
2022-09-28T14:07:00.654Z,31.89
2022-09-28T14:09:59.932Z,30.65
2022-09-28T14:12:00.278Z,30.66
2022-09-28T14:15:00.196Z,30.69
2022-09-28T14:17:59.966Z,31.5
2022-09-28T14:20:00.547Z,31.74
2022-09-28T14:22:59.075Z,32.64
2022-09-28T14:24:59.954Z,32.06
2022-09-28T14:27:00.015Z,32.94
2022-09-28T14:29:59.976Z,34.22
2022-09-28T14:31:59.984Z,32.94
2022-09-28T14:34:59.012Z,32.99
2022-09-28T14:36:59.973Z,32.79
2022-09-28T14:39:00.487Z,32.5
2022-09-28T14:41:59.982Z,30.49
2022-09-28T14:45:03.321Z,33.14
2022-09-28T14:46:59.980Z,33.39
2022-09-28T14:50:00.548Z,33.17
2022-09-28T14:53:00.597Z,32.97
2022-09-28T14:56:00.336Z,31.45
2022-09-28T14:59:00.579Z,31.71
2022-09-28T15:01:59.989Z,30.73
2022-09-28T15:05:00.485Z,30.97
2022-09-28T15:07:00.350Z,31.35
2022-09-28T15:10:00.123Z,31.33
2022-09-28T15:12:59.991Z,30.8
2022-09-28T15:15:00.093Z,31.08
2022-09-28T15:17:00.696Z,30.82
2022-09-28T15:19:59.997Z,30.37
2022-09-28T15:22:00.060Z,31.2
2022-09-28T15:25:02.603Z,31
2022-09-28T15:27:59.987Z,31.45
2022-09-28T15:29:59.972Z,33.9
2022-09-28T15:32:00.822Z,33.13
2022-09-28T15:35:00.791Z,33.2
2022-09-28T15:37:59.990Z,33
2022-09-28T15:41:00.472Z,33.25
2022-09-28T15:43:59.970Z,34.19
2022-09-28T15:46:00.546Z,33.97
2022-09-28T15:48:59.992Z,33.27
2022-09-28T15:52:00.061Z,33.12
2022-09-28T15:54:59.983Z,33.64
2022-09-28T15:57:00.544Z,32.93
2022-09-28T16:02:00.017Z,33.83
2022-09-28T16:04:00.005Z,33.94
2022-09-28T16:06:00.125Z,33.65
2022-09-28T16:08:00.703Z,33.41
2022-09-28T16:10:59.041Z,33.47
2022-09-28T16:13:00.009Z,33.3
2022-09-28T16:15:00.248Z,33.53
2022-09-28T16:17:00.707Z,33.52
2022-09-28T16:19:59.983Z,32.99
2022-09-28T16:22:59.058Z,33.24
2022-09-28T16:25:00.272Z,33.54
2022-09-28T16:28:00.707Z,33.77
2022-09-28T16:31:00.282Z,33.7
2022-09-28T16:33:00.394Z,34.01
2022-09-28T16:36:00.031Z,33.78
2022-09-28T16:39:00.042Z,34.34
2022-09-28T16:42:00.022Z,34.87
2022-09-28T16:44:00.006Z,34.97
2022-09-28T16:47:00.046Z,34.83
2022-09-28T16:49:00.523Z,35.04
2022-09-28T16:52:00.106Z,35.54
2022-09-28T16:54:00.749Z,35.86
2022-09-28T16:57:00.035Z,36.06
2022-09-28T16:59:00.629Z,36.3
2022-09-28T17:02:00.164Z,36.39
2022-09-28T17:04:00.176Z,36.89
2022-09-28T17:07:00.228Z,37.35
2022-09-28T17:09:00.806Z,37.46
2022-09-28T17:12:00.005Z,37.69
2022-09-28T17:14:59.991Z,38.13
2022-09-28T17:18:00.124Z,38.95
2022-09-28T17:21:00.321Z,39.49
2022-09-28T17:24:00.003Z,40.2
2022-09-28T17:27:00.311Z,40.72
2022-09-28T17:29:59.991Z,41.07
2022-09-28T17:32:00.009Z,41.2
2022-09-28T17:35:19.726Z,41.49
2022-09-28T17:37:00.831Z,41.81
2022-09-28T17:40:00.004Z,41.93
2022-09-28T17:43:00.784Z,42.09
2022-09-28T17:46:00.668Z,42.15
2022-09-28T17:48:59.988Z,42.48
2022-09-28T17:51:00.222Z,42.63
2022-09-28T17:54:00.025Z,42.8
2022-09-28T17:57:00.005Z,42.95
2022-09-28T18:00:00.749Z,43.16
2022-09-28T18:03:00.328Z,43.3
2022-09-28T18:06:00.103Z,43.66
2022-09-28T18:08:00.800Z,43.38
2022-09-28T18:11:00.055Z,43.52
2022-09-28T18:14:00.001Z,43.49
2022-09-28T18:16:00.617Z,43.56
2022-09-28T18:19:00.632Z,43.68
2022-09-28T18:22:00.053Z,43.37
2022-09-28T18:24:00.816Z,43.62
2022-09-28T18:26:00.844Z,43.79
2022-09-28T18:29:00.693Z,43.89
2022-09-28T18:32:00.547Z,44.19
2022-09-28T18:35:00.007Z,44.28
2022-09-28T18:37:00.251Z,44.61
2022-09-28T18:39:00.621Z,44.93
2022-09-28T18:41:00.674Z,45.09
2022-09-28T18:43:59.995Z,45.25
2022-09-28T18:47:00.127Z,45.25
2022-09-28T18:49:07.556Z,45.36
2022-09-28T18:51:00.811Z,45.91
2022-09-28T18:55:00.017Z,45.85
2022-09-28T18:57:00.617Z,45.91
2022-09-28T19:00:00.872Z,46.05
2022-09-28T19:03:00.323Z,46.1
2022-09-28T19:05:00.597Z,46.46
2022-09-28T19:08:00.197Z,46.53
2022-09-28T19:10:00.966Z,46.75
2022-09-28T19:13:00.182Z,46.56
2022-09-28T19:16:00.045Z,46.69
2022-09-28T19:20:00.054Z,46.52
2022-09-28T19:22:00.099Z,46.43
2022-09-28T19:24:00.515Z,46.22
2022-09-28T19:27:00.026Z,46.11
2022-09-28T19:29:00.041Z,45.88
2022-09-28T19:32:00.790Z,45.8
2022-09-28T19:35:00.058Z,45.66
2022-09-28T19:37:00.627Z,45.76
2022-09-28T19:40:00.038Z,46.26
2022-09-28T19:43:01.018Z,45.97
2022-09-28T19:46:00.076Z,46.48
2022-09-28T19:48:00.773Z,46.56
2022-09-28T19:51:00.023Z,46.43
2022-09-28T19:54:00.027Z,46.82
2022-09-28T19:56:00.871Z,46.85
2022-09-28T19:59:00.855Z,46.74
2022-09-28T20:02:00.221Z,46.44
2022-09-28T20:04:00.311Z,46.55
2022-09-28T20:07:00.093Z,46.75
2022-09-28T20:10:00.046Z,46.79
2022-09-28T20:12:00.100Z,47.05
2022-09-28T20:14:00.200Z,46.8
2022-09-28T20:17:00.118Z,47.05
2022-09-28T20:19:00.323Z,46.9
2022-09-28T20:22:00.045Z,47.28
2022-09-28T20:25:00.526Z,47.09
2022-09-28T20:28:00.047Z,47.14
2022-09-28T20:32:00.479Z,47.32
2022-09-28T20:35:00.027Z,47.5
2022-09-28T20:37:00.138Z,47.56
2022-09-28T20:41:00.545Z,47.61
2022-09-28T20:44:04.242Z,47.94
2022-09-28T20:46:00.094Z,48.19
2022-09-28T20:48:00.517Z,48.1
2022-09-28T20:51:00.021Z,47.71
2022-09-28T20:53:00.061Z,47.73
2022-09-28T20:55:00.117Z,48.19
2022-09-28T20:57:00.577Z,48.32
2022-09-28T21:00:00.031Z,48.88
2022-09-28T21:03:00.454Z,49.21
2022-09-28T21:06:00.025Z,49.23
2022-09-28T21:08:00.630Z,49.23
2022-09-28T21:11:00.095Z,49.42
2022-09-28T21:13:00.345Z,49.41
2022-09-28T21:15:59.156Z,49.55
2022-09-28T21:18:00.017Z,49.09
2022-09-28T21:20:00.589Z,49.09
2022-09-28T21:23:00.097Z,49.26
2022-09-28T21:26:00.277Z,49.14
2022-09-28T21:29:00.208Z,49.25
2022-09-28T21:32:00.045Z,49.09
2022-09-28T21:34:00.050Z,49.42
2022-09-28T21:37:00.846Z,49.71
2022-09-28T21:40:00.017Z,49.55
2022-09-28T21:42:00.684Z,49.98
2022-09-28T21:45:00.183Z,50.02
2022-09-28T21:47:00.487Z,50
2022-09-28T21:51:00.055Z,49.87
2022-09-28T21:53:00.153Z,49.65
2022-09-28T21:56:00.053Z,49.6
2022-09-28T21:59:00.203Z,49.38
2022-09-28T22:02:00.113Z,49.25
2022-09-28T22:04:00.081Z,48.97
2022-09-28T22:06:00.040Z,49.2
2022-09-28T22:09:00.087Z,49.14
2022-09-28T22:14:00.099Z,48.42
2022-09-28T22:16:00.475Z,48.57
2022-09-28T22:19:00.079Z,49.1
2022-09-28T22:21:00.953Z,49.06
2022-09-28T22:24:00.628Z,48.94
2022-09-28T22:28:00.047Z,49.21
2022-09-28T22:30:00.914Z,49.36
2022-09-28T22:33:00.242Z,49.41
2022-09-28T22:35:59.126Z,49.69
2022-09-28T22:38:00.638Z,49.8
2022-09-28T22:41:00.119Z,49.63
2022-09-28T22:43:00.192Z,49.6
2022-09-28T22:46:00.447Z,49.87
2022-09-28T22:49:00.900Z,49.7
2022-09-28T22:52:00.691Z,49.57
2022-09-28T22:55:00.084Z,49.57
2022-09-28T22:58:00.077Z,50.22
2022-09-28T23:00:00.329Z,49.97
2022-09-28T23:03:00.614Z,50.16
2022-09-28T23:05:00.581Z,50.01
2022-09-28T23:08:00.127Z,50.29
2022-09-28T23:11:00.095Z,50.27
2022-09-28T23:14:00.250Z,49.91
2022-09-28T23:17:00.040Z,49.59
2022-09-28T23:19:00.105Z,50.03
2022-09-28T23:22:00.095Z,49.72
2022-09-28T23:24:00.761Z,49.79
2022-09-28T23:27:00.043Z,49.81
2022-09-28T23:30:00.329Z,49.69
2022-09-28T23:33:00.918Z,49.68
2022-09-28T23:36:00.071Z,49.98
2022-09-28T23:38:00.285Z,50.16
2022-09-28T23:41:00.875Z,50
2022-09-28T23:44:00.049Z,50.24
2022-09-28T23:46:00.672Z,50.28
2022-09-28T23:49:00.033Z,50.48
2022-09-28T23:52:00.727Z,50.72
2022-09-28T23:55:00.819Z,50.91
2022-09-28T23:58:01.060Z,50.54
